Accueil
METAR-TAF:

METAR-TAF

Aéroports :

Skelton Airport

Eureka, Alaska, États-Unis

latitude: 61-56N, longitude: 147-10W, altitude: 1002 m

Observation

Le bulletin a été fait il y a 4 heures et 33 minutes, à 19:56 UTC
Vent 5 kt de ouest/sud-ouest
Température -16°C
Humidité 92%
Pression 995 hPa
Visibilité: 2.0 km
Nuages fragmentés à une hauteur de 1900 ft
Ciel couvert à une hauteur de 3400 ft
neige faible, brume

METAR: PAZK 221956Z AUTO 25005KT 1 1/4SM -SN BR BKN019 OVC034 M16/M17 A2939 RMK AO2 SNB16 SLP041 P0000 T11561172 FZRANO

Heure: 15:29 (00:29 UTC)


TAF: absent

Observations et prévisions météorologiques de plus de 4000 aéroports (messages METAR et TAF).

Les stations disponibles sont représentées par des disques jaunes et rouges sur la carte.

Passer la souris dessus pour voir le nom de la station.

Cliquer dessus pour voir les observations et prévisions météorologiques.

Pour changer de carte: cliquez sur les boutons verts avec une croix noire pour zoomer, sur le bouton vert avec un tiret pour effectuer un zoom arrière, ou sur les flèches vertes pour les cartes adjacentes.


METAR-TAF: